sensor_id;sensor_type;location;lat;lon;timestamp;P1;P2;P0
58740;PMS7003;44512;53.046;18.604;2023-07-20T00:06:07;11;11;8
58740;PMS7003;44512;53.046;18.604;2023-07-20T00:16:35;12;12;9
58740;PMS7003;44512;53.046;18.604;2023-07-20T00:27:03;12;12;9
58740;PMS7003;44512;53.046;18.604;2023-07-20T00:37:32;15;11;10
58740;PMS7003;44512;53.046;18.604;2023-07-20T00:48:01;24;18;13
58740;PMS7003;44512;53.046;18.604;2023-07-20T00:58:28;18;16;12
58740;PMS7003;44512;53.046;18.604;2023-07-20T01:19:25;21;19;15
58740;PMS7003;44512;53.046;18.604;2023-07-20T01:40:22;21;19;13
58740;PMS7003;44512;53.046;18.604;2023-07-20T01:50:50;21;17;13
58740;PMS7003;44512;53.046;18.604;2023-07-20T02:01:18;16;16;11
58740;PMS7003;44512;53.046;18.604;2023-07-20T02:11:47;15;14;12
58740;PMS7003;44512;53.046;18.604;2023-07-20T02:22:15;16;15;12
58740;PMS7003;44512;53.046;18.604;2023-07-20T02:32:44;16;14;10
58740;PMS7003;44512;53.046;18.604;2023-07-20T02:43:12;17;16;12
58740;PMS7003;44512;53.046;18.604;2023-07-20T02:53:40;17;16;12
58740;PMS7003;44512;53.046;18.604;2023-07-20T03:04:09;17;15;11
58740;PMS7003;44512;53.046;18.604;2023-07-20T03:14:37;16;14;12
58740;PMS7003;44512;53.046;18.604;2023-07-20T03:25:06;17;15;12
58740;PMS7003;44512;53.046;18.604;2023-07-20T03:35:34;17;16;12
58740;PMS7003;44512;53.046;18.604;2023-07-20T03:46:02;16;14;11
58740;PMS7003;44512;53.046;18.604;2023-07-20T03:56:30;16;14;10
58740;PMS7003;44512;53.046;18.604;2023-07-20T04:06:59;15;13;10
58740;PMS7003;44512;53.046;18.604;2023-07-20T04:17:27;12;12;9
58740;PMS7003;44512;53.046;18.604;2023-07-20T04:27:55;8;7;6
58740;PMS7003;44512;53.046;18.604;2023-07-20T04:38:24;12;8;7
58740;PMS7003;44512;53.046;18.604;2023-07-20T04:48:52;11;10;7
58740;PMS7003;44512;53.046;18.604;2023-07-20T04:59:20;14;11;8
58740;PMS7003;44512;53.046;18.604;2023-07-20T05:09:49;12;8;7
58740;PMS7003;44512;53.046;18.604;2023-07-20T05:20:17;9;8;6
58740;PMS7003;44512;53.046;18.604;2023-07-20T05:30:46;12;9;8
58740;PMS7003;44512;53.046;18.604;2023-07-20T05:41:14;7;7;5
58740;PMS7003;44512;53.046;18.604;2023-07-20T05:51:42;6;6;5
58740;PMS7003;44512;53.046;18.604;2023-07-20T06:02:11;6;6;5
58740;PMS7003;44512;53.046;18.604;2023-07-20T06:12:39;6;6;5
58740;PMS7003;44512;53.046;18.604;2023-07-20T06:23:07;13;9;7
58740;PMS7003;44512;53.046;18.604;2023-07-20T06:33:36;16;15;10
58740;PMS7003;44512;53.046;18.604;2023-07-20T06:44:04;17;13;10
58740;PMS7003;44512;53.046;18.604;2023-07-20T06:54:32;12;11;9
58740;PMS7003;44512;53.046;18.604;2023-07-20T07:05:01;12;10;8
58740;PMS7003;44512;53.046;18.604;2023-07-20T07:15:29;8;7;6
58740;PMS7003;44512;53.046;18.604;2023-07-20T07:25:57;10;10;8
58740;PMS7003;44512;53.046;18.604;2023-07-20T07:36:26;11;10;8
58740;PMS7003;44512;53.046;18.604;2023-07-20T07:46:54;11;9;7
58740;PMS7003;44512;53.046;18.604;2023-07-20T07:57:23;7;7;6
58740;PMS7003;44512;53.046;18.604;2023-07-20T08:07:51;6;6;4
58740;PMS7003;44512;53.046;18.604;2023-07-20T08:18:19;5;5;4
58740;PMS7003;44512;53.046;18.604;2023-07-20T08:28:48;6;5;4
58740;PMS7003;44512;53.046;18.604;2023-07-20T08:39:16;4;4;4
58740;PMS7003;44512;53.046;18.604;2023-07-20T08:49:44;5;4;4
58740;PMS7003;44512;53.046;18.604;2023-07-20T09:00:13;6;5;5
58740;PMS7003;44512;53.046;18.604;2023-07-20T09:10:41;4;4;3
58740;PMS7003;44512;53.046;18.604;2023-07-20T09:21:10;5;4;4
58740;PMS7003;44512;53.046;18.604;2023-07-20T09:31:38;5;4;4
58740;PMS7003;44512;53.046;18.604;2023-07-20T09:42:06;4;4;3
58740;PMS7003;44512;53.046;18.604;2023-07-20T09:52:34;4;4;3
58740;PMS7003;44512;53.046;18.604;2023-07-20T10:03:03;5;4;3
58740;PMS7003;44512;53.046;18.604;2023-07-20T10:13:31;3;3;3
58740;PMS7003;44512;53.046;18.604;2023-07-20T10:23:59;4;3;3
58740;PMS7003;44512;53.046;18.604;2023-07-20T10:34:28;2;2;2
58740;PMS7003;44512;53.046;18.604;2023-07-20T10:44:56;3;2;1
58740;PMS7003;44512;53.046;18.604;2023-07-20T10:55:24;1;1;1
58740;PMS7003;44512;53.046;18.604;2023-07-20T11:05:52;1;1;1
58740;PMS7003;44512;53.046;18.604;2023-07-20T11:16:31;0;0;0
58740;PMS7003;44512;53.046;18.604;2023-07-20T11:26:53;1;1;1
58740;PMS7003;44512;53.046;18.604;2023-07-20T11:37:17;1;0;0
58740;PMS7003;44512;53.046;18.604;2023-07-20T11:47:46;0;0;0
58740;PMS7003;44512;53.046;18.604;2023-07-20T11:58:14;1;0;0
58740;PMS7003;44512;53.046;18.604;2023-07-20T12:08:43;1;1;1
58740;PMS7003;44512;53.046;18.604;2023-07-20T12:19:11;0;0;0
58740;PMS7003;44512;53.046;18.604;2023-07-20T12:29:39;0;0;0
58740;PMS7003;44512;53.046;18.604;2023-07-20T12:40:08;0;0;0
58740;PMS7003;44512;53.046;18.604;2023-07-20T12:50:36;1;1;0
58740;PMS7003;44512;53.046;18.604;2023-07-20T13:01:05;0;0;0
58740;PMS7003;44512;53.046;18.604;2023-07-20T13:11:33;0;0;0
58740;PMS7003;44512;53.046;18.604;2023-07-20T13:22:01;0;0;0
58740;PMS7003;44512;53.046;18.604;2023-07-20T13:32:29;0;0;0
58740;PMS7003;44512;53.046;18.604;2023-07-20T13:42:58;0;0;0
58740;PMS7003;44512;53.046;18.604;2023-07-20T13:53:26;0;0;0
58740;PMS7003;44512;53.046;18.604;2023-07-20T14:03:55;0;0;0
58740;PMS7003;44512;53.046;18.604;2023-07-20T14:14:23;1;0;0
58740;PMS7003;44512;53.046;18.604;2023-07-20T14:24:51;0;0;0
58740;PMS7003;44512;53.046;18.604;2023-07-20T14:35:19;1;1;0
58740;PMS7003;44512;53.046;18.604;2023-07-20T14:51:05;0;0;0
58740;PMS7003;44512;53.046;18.604;2023-07-20T15:01:33;0;0;0
58740;PMS7003;44512;53.046;18.604;2023-07-20T15:12:02;4;2;2
58740;PMS7003;44512;53.046;18.604;2023-07-20T15:22:33;3;2;1
58740;PMS7003;44512;53.046;18.604;2023-07-20T15:32:58;1;1;0
58740;PMS7003;44512;53.046;18.604;2023-07-20T15:43:27;1;0;0
58740;PMS7003;44512;53.046;18.604;2023-07-20T15:53:55;0;0;0
58740;PMS7003;44512;53.046;18.604;2023-07-20T16:04:23;0;0;0
58740;PMS7003;44512;53.046;18.604;2023-07-20T16:14:52;0;0;0
58740;PMS7003;44512;53.046;18.604;2023-07-20T16:25:20;0;0;0
58740;PMS7003;44512;53.046;18.604;2023-07-20T16:35:48;0;0;0
58740;PMS7003;44512;53.046;18.604;2023-07-20T16:46:17;0;0;0
58740;PMS7003;44512;53.046;18.604;2023-07-20T16:56:45;0;0;0
58740;PMS7003;44512;53.046;18.604;2023-07-20T17:07:13;0;0;0
58740;PMS7003;44512;53.046;18.604;2023-07-20T17:17:42;0;0;0
58740;PMS7003;44512;53.046;18.604;2023-07-20T17:28:10;0;0;0
58740;PMS7003;44512;53.046;18.604;2023-07-20T17:38:38;0;0;0
58740;PMS7003;44512;53.046;18.604;2023-07-20T17:49:06;0;0;0
58740;PMS7003;44512;53.046;18.604;2023-07-20T17:59:35;0;0;0
58740;PMS7003;44512;53.046;18.604;2023-07-20T18:10:03;0;0;0
58740;PMS7003;44512;53.046;18.604;2023-07-20T18:20:33;1;0;0
58740;PMS7003;44512;53.046;18.604;2023-07-20T18:31:03;0;0;0
58740;PMS7003;44512;53.046;18.604;2023-07-20T18:41:28;1;0;0
58740;PMS7003;44512;53.046;18.604;2023-07-20T18:51:57;1;1;1
58740;PMS7003;44512;53.046;18.604;2023-07-20T19:02:25;2;1;1
58740;PMS7003;44512;53.046;18.604;2023-07-20T19:12:53;0;0;0
58740;PMS7003;44512;53.046;18.604;2023-07-20T19:23:21;1;1;1
58740;PMS7003;44512;53.046;18.604;2023-07-20T19:33:50;5;2;2
58740;PMS7003;44512;53.046;18.604;2023-07-20T19:44:18;2;1;1
58740;PMS7003;44512;53.046;18.604;2023-07-20T19:54:46;2;1;1
58740;PMS7003;44512;53.046;18.604;2023-07-20T20:05:15;2;2;1
58740;PMS7003;44512;53.046;18.604;2023-07-20T20:15:43;2;2;1
58740;PMS7003;44512;53.046;18.604;2023-07-20T20:26:11;4;2;1
58740;PMS7003;44512;53.046;18.604;2023-07-20T20:36:40;4;4;3
58740;PMS7003;44512;53.046;18.604;2023-07-20T20:47:08;3;2;1
58740;PMS7003;44512;53.046;18.604;2023-07-20T20:57:36;2;2;2
58740;PMS7003;44512;53.046;18.604;2023-07-20T21:08:05;3;3;2
58740;PMS7003;44512;53.046;18.604;2023-07-20T21:18:33;2;2;2
58740;PMS7003;44512;53.046;18.604;2023-07-20T21:29:02;3;2;2
58740;PMS7003;44512;53.046;18.604;2023-07-20T21:39:30;3;3;2
58740;PMS7003;44512;53.046;18.604;2023-07-20T21:49:58;4;3;3
58740;PMS7003;44512;53.046;18.604;2023-07-20T22:00:27;3;3;2
58740;PMS7003;44512;53.046;18.604;2023-07-20T22:10:55;3;3;3
58740;PMS7003;44512;53.046;18.604;2023-07-20T22:21:23;5;4;3
58740;PMS7003;44512;53.046;18.604;2023-07-20T22:31:52;4;3;2
58740;PMS7003;44512;53.046;18.604;2023-07-20T22:42:20;4;3;3
58740;PMS7003;44512;53.046;18.604;2023-07-20T22:52:48;5;4;3
58740;PMS7003;44512;53.046;18.604;2023-07-20T23:03:17;4;4;3
58740;PMS7003;44512;53.046;18.604;2023-07-20T23:13:45;5;4;4
58740;PMS7003;44512;53.046;18.604;2023-07-20T23:24:14;4;4;4
58740;PMS7003;44512;53.046;18.604;2023-07-20T23:34:42;5;5;3
58740;PMS7003;44512;53.046;18.604;2023-07-20T23:45:10;5;4;4
58740;PMS7003;44512;53.046;18.604;2023-07-20T23:55:38;4;4;4
